Time;durP1;ratioP1;P1;durP2;ratioP2;P2;SDS_P1;SDS_P2;PMS_P1;PMS_P2;Temp;Humidity;BMP_temperature;BMP_pressure;BME280_temperature;BME280_humidity;BME280_pressure;Samples;Min_cycle;Max_cycle;Signal;HPM_P1;HPM_P2
2022/11/01 00:01:58;;;;;;;17.88;7.78;;;;;;;11.83;93.03;93136.72;4860985;29;20037;-76
2022/11/01 00:04:23;;;;;;;18.67;8.57;;;;;;;11.81;92.55;93132.81;4862131;29;20042;-76
2022/11/01 00:06:49;;;;;;;18.88;8.65;;;;;;;11.80;92.88;93121.56;4860807;29;20047;-76
2022/11/01 00:09:15;;;;;;;21.75;8.30;;;;;;;11.80;92.87;93123.41;4854787;29;20041;-76
2022/11/01 00:11:41;;;;;;;18.73;8.10;;;;;;;11.79;92.70;93119.97;4844582;29;20045;-76
2022/11/01 00:14:07;;;;;;;23.52;8.57;;;;;;;11.77;92.69;93119.47;4852382;29;20138;-76
2022/11/01 00:16:33;;;;;;;25.70;9.40;;;;;;;11.78;93.76;93118.44;4861034;29;20037;-76
2022/11/01 00:18:58;;;;;;;22.60;9.30;;;;;;;11.78;94.21;93112.41;4860547;29;20274;-76
2022/11/01 00:21:24;;;;;;;20.08;9.43;;;;;;;11.74;94.67;93106.94;4849595;29;20061;-76
2022/11/01 00:23:50;;;;;;;17.80;7.40;;;;;;;11.73;93.56;93104.56;4843220;29;20034;-76
2022/11/01 00:26:19;;;;;;;22.02;7.07;;;;;;;11.73;92.89;93108.00;4843485;29;20046;-76
2022/11/01 00:28:45;;;;;;;22.67;6.90;;;;;;;11.70;92.61;93105.91;4852825;29;20041;-76
2022/11/01 00:31:11;;;;;;;24.20;8.02;;;;;;;11.70;93.20;93108.53;4854088;29;20412;-76
2022/11/01 00:33:38;;;;;;;21.02;9.00;;;;;;;11.66;94.26;93110.94;4860641;29;20038;-76
2022/11/01 00:36:04;;;;;;;22.02;9.00;;;;;;;11.65;94.37;93103.34;4860265;29;20508;-76
2022/11/01 00:38:30;;;;;;;24.45;6.85;;;;;;;11.65;94.30;93100.72;4845038;29;20034;-76
2022/11/01 00:40:56;;;;;;;19.52;6.00;;;;;;;11.64;93.40;93102.56;4857970;29;20036;-76
2022/11/01 00:43:22;;;;;;;12.35;4.40;;;;;;;11.61;92.72;93102.34;4860115;29;20128;-76
2022/11/01 00:45:47;;;;;;;12.30;4.70;;;;;;;11.61;92.47;93102.34;4861264;29;20049;-76
2022/11/01 00:48:13;;;;;;;16.38;4.75;;;;;;;11.58;92.32;93105.50;4861392;29;20407;-76
2022/11/01 00:50:39;;;;;;;18.38;4.90;;;;;;;11.58;92.32;93105.50;4859242;29;20037;-76
2022/11/01 00:53:05;;;;;;;19.52;5.50;;;;;;;11.56;92.25;93105.00;4859346;29;20399;-76
2022/11/01 00:55:31;;;;;;;17.30;5.78;;;;;;;11.54;92.71;93105.28;4861446;29;20072;-76
2022/11/01 00:57:56;;;;;;;16.63;5.35;;;;;;;11.52;92.35;93104.75;4860175;29;20065;-76
2022/11/01 01:00:22;;;;;;;13.38;4.95;;;;;;;11.54;92.13;93104.50;4858385;29;20042;-76
2022/11/01 01:02:48;;;;;;;18.77;5.47;;;;;;;11.54;92.80;93104.50;4859367;29;20444;-76
2022/11/01 01:05:14;;;;;;;16.63;5.80;;;;;;;11.52;92.89;93101.38;4856020;29;20568;-76
2022/11/01 01:07:39;;;;;;;19.58;6.35;;;;;;;11.52;92.62;93101.38;4841391;29;20109;-76
2022/11/01 01:10:06;;;;;;;22.75;7.75;;;;;;;11.53;92.43;93105.53;4841184;29;20038;-76
2022/11/01 01:12:32;;;;;;;19.35;6.85;;;;;;;11.54;93.23;93109.75;4854245;29;20028;-76
2022/11/01 01:14:58;;;;;;;22.25;7.55;;;;;;;11.53;93.46;93105.53;4861098;29;20044;-76
2022/11/01 01:17:23;;;;;;;16.05;6.18;;;;;;;11.54;93.06;93110.53;4861019;29;20399;-76
2022/11/01 01:19:49;;;;;;;16.52;7.05;;;;;;;11.53;93.07;93103.72;4859891;29;20437;-76
2022/11/01 01:22:14;;;;;;;19.33;7.97;;;;;;;11.54;93.31;93107.13;4853666;29;20488;-76
2022/11/01 01:24:44;;;;;;;23.02;7.97;;;;;;;11.55;93.30;93104.22;4827697;29;20053;-76
2022/11/01 01:27:11;;;;;;;22.73;8.52;;;;;;;11.56;92.96;93094.53;4841266;29;20128;-76
2022/11/01 01:29:40;;;;;;;19.83;8.38;;;;;;;11.56;93.37;93094.53;4841110;29;20497;-76
2022/11/01 01:32:17;;;;;;;21.38;8.10;;;;;;;11.57;94.86;93101.31;4843705;29;20404;-76
2022/11/01 01:34:43;;;;;;;20.20;8.13;;;;;;;11.56;94.83;93099.75;4855351;29;20489;-76
2022/11/01 01:37:09;;;;;;;18.65;8.18;;;;;;;11.55;95.40;93098.19;4840957;29;20030;-76
2022/11/01 01:39:36;;;;;;;20.90;7.40;;;;;;;11.54;94.35;93096.63;4842090;29;20048;-76
2022/11/01 01:42:13;;;;;;;20.20;8.27;;;;;;;11.54;95.08;93092.16;4840716;29;20034;-76
2022/11/01 01:44:50;;;;;;;20.73;8.30;;;;;;;11.54;95.12;93091.38;4856507;29;20169;-76
2022/11/01 01:47:25;;;;;;;17.63;8.00;;;;;;;11.53;95.17;93092.44;4857720;29;20150;-76
2022/11/01 01:50:16;;;;;;;20.30;7.25;;;;;;;11.52;94.79;93093.50;4842000;29;20033;-76
2022/11/01 01:52:48;;;;;;;23.63;7.03;;;;;;;11.51;94.87;93090.09;4841993;29;20037;-76
2022/11/01 01:55:17;;;;;;;23.30;7.07;;;;;;;11.50;94.46;93085.13;4845421;29;20092;-76
2022/11/01 01:57:43;;;;;;;18.23;6.53;;;;;;;11.51;93.98;93089.34;4860331;29;20034;-76
2022/11/01 02:00:10;;;;;;;15.25;6.07;;;;;;;11.49;94.75;93083.56;4860028;29;20049;-76
2022/11/01 02:02:40;;;;;;;19.15;6.93;;;;;;;11.45;95.99;93083.34;4849172;29;20048;-76
2022/11/01 02:05:32;;;;;;;18.25;6.75;;;;;;;11.40;96.05;93086.78;4851980;29;20041;-76
2022/11/01 02:07:59;;;;;;;17.25;6.82;;;;;;;11.39;95.36;93085.25;4873809;29;20061;-76
2022/11/01 02:10:26;;;;;;;21.65;7.50;;;;;;;11.39;95.01;93076.56;4859970;29;20120;-76
2022/11/01 02:12:51;;;;;;;23.98;8.77;;;;;;;11.39;95.13;93076.56;4858784;29;20046;-76
2022/11/01 02:15:22;;;;;;;27.70;9.73;;;;;;;11.39;96.45;93085.25;4857748;29;20044;-76
2022/11/01 02:18:10;;;;;;;24.58;9.80;;;;;;;11.39;96.32;93079.19;4843695;29;20074;-76
2022/11/01 02:21:00;;;;;;;20.63;8.82;;;;;;;11.38;96.44;93081.03;4839416;29;20073;-76
2022/11/01 02:24:00;;;;;;;25.77;8.43;;;;;;;11.38;95.89;93073.19;4843531;29;20041;-76
2022/11/01 02:26:38;;;;;;;14.50;6.80;;;;;;;11.37;96.12;93076.88;4857706;29;20407;-75
2022/11/01 02:29:10;;;;;;;22.58;6.43;;;;;;;11.37;95.49;93069.00;4859548;29;20048;-76
2022/11/01 02:31:51;;;;;;;18.90;6.20;;;;;;;11.36;94.84;93062.19;4845839;29;20351;-76
2022/11/01 02:34:32;;;;;;;18.98;6.43;;;;;;;11.36;94.95;93054.31;4857784;29;20620;-76
2022/11/01 02:37:11;;;;;;;14.80;5.30;;;;;;;11.35;94.91;93058.00;4857914;29;20125;-76
2022/11/01 02:39:43;;;;;;;19.55;6.20;;;;;;;11.35;94.86;93057.19;4873549;29;20041;-76
2022/11/01 02:42:15;;;;;;;20.25;5.72;;;;;;;11.35;94.29;93058.00;4859646;29;20033;-76
2022/11/01 02:44:44;;;;;;;;;;;;;;;11.35;94.02;93063.25;4856778;29;20033;-76
2022/11/01 02:47:11;;;;;;;13.18;5.95;;;;;;;11.37;93.58;93061.13;4849545;29;19920;-76
2022/11/01 02:49:47;;;;;;;14.18;5.75;;;;;;;11.38;93.62;93062.69;4859259;29;20042;-76
2022/11/01 02:52:17;;;;;;;14.25;5.32;;;;;;;11.38;93.26;93065.31;4859246;29;20487;-76
2022/11/01 02:54:47;;;;;;;15.68;5.63;;;;;;;11.37;94.06;93066.38;4859378;29;20120;-76
2022/11/01 02:57:25;;;;;;;14.75;5.53;;;;;;;11.37;94.85;93063.75;4842916;29;20033;-76
2022/11/01 02:59:51;;;;;;;22.65;7.15;;;;;;;11.36;95.31;93066.66;4841151;29;20488;-76
2022/11/01 03:02:38;;;;;;;19.45;7.63;;;;;;;11.35;95.00;93065.88;4840687;29;20041;-76
2022/11/01 03:05:26;;;;;;;15.07;5.93;;;;;;;11.34;95.01;93061.66;4839668;29;20092;-76
2022/11/01 03:08:01;;;;;;;19.80;7.43;;;;;;;11.34;94.95;93061.66;4858306;29;20320;-76
2022/11/01 03:11:02;;;;;;;27.50;10.48;;;;;;;11.37;96.29;93068.19;4857544;29;20091;-76
2022/11/01 03:13:59;;;;;;;27.05;11.50;;;;;;;11.36;97.24;93064.81;4837498;29;20053;-76
2022/11/01 03:16:43;;;;;;;28.63;11.30;;;;;;;11.37;98.06;93062.97;4843220;29;20050;-76
2022/11/01 03:19:48;;;;;;;25.23;11.50;;;;;;;11.34;97.67;93059.06;4851563;29;20437;-76
2022/11/01 03:22:25;;;;;;;33.35;12.75;;;;;;;11.35;97.16;93054.59;4873325;29;20554;-76
2022/11/01 03:25:00;;;;;;;26.90;12.40;;;;;;;11.35;97.28;93058.00;4858874;29;20132;-76
2022/11/01 03:27:46;;;;;;;28.88;13.13;;;;;;;11.36;97.55;93064.81;4858480;29;20484;-76
2022/11/01 03:30:13;;;;;;;28.95;11.77;;;;;;;11.36;98.27;93064.03;4844224;29;20105;-76
2022/11/01 03:32:55;;;;;;;32.42;12.50;;;;;;;11.35;98.88;93063.25;4838398;29;20078;-76
2022/11/01 03:35:33;;;;;;;33.72;12.20;;;;;;;11.35;99.25;93068.50;4855370;29;20117;-76
2022/11/01 03:38:04;;;;;;;33.17;11.00;;;;;;;11.35;99.19;93065.88;4858656;29;20037;-76
2022/11/01 03:40:32;;;;;;;21.63;8.95;;;;;;;11.36;98.46;93062.19;4857112;29;20140;-76
2022/11/01 03:43:03;;;;;;;27.23;8.98;;;;;;;11.33;97.31;93062.75;4858563;29;20482;-76
2022/11/01 03:45:31;;;;;;;16.92;7.45;;;;;;;11.33;97.21;93075.84;4854710;29;20046;-76
2022/11/01 03:47:59;;;;;;;13.65;5.88;;;;;;;11.30;96.84;93072.97;4846355;29;20061;-76
2022/11/01 03:50:27;;;;;;;21.23;5.70;;;;;;;11.28;96.59;93070.66;4871434;29;20524;-76
2022/11/01 03:52:53;;;;;;;18.35;6.13;;;;;;;11.26;96.49;93075.38;4858655;29;20037;-76
2022/11/01 03:55:19;;;;;;;19.30;6.82;;;;;;;11.23;96.65;93073.31;4857578;29;20045;-76
2022/11/01 03:57:58;;;;;;;18.77;6.72;;;;;;;11.24;96.62;93077.50;4856338;29;20100;-76
2022/11/01 04:00:30;;;;;;;12.90;5.57;;;;;;;11.22;96.74;93074.38;4841220;29;20042;-76
2022/11/01 04:02:57;;;;;;;14.20;5.40;;;;;;;11.22;96.00;93079.63;4858838;29;20416;-76
2022/11/01 04:05:25;;;;;;;15.32;5.07;;;;;;;11.21;95.60;93081.47;4842137;29;20037;-76
2022/11/01 04:07:51;;;;;;;16.75;5.10;;;;;;;11.21;96.04;93083.28;4858196;29;20037;-76
2022/11/01 04:10:18;;;;;;;15.25;4.88;;;;;;;11.19;95.89;93080.94;4856671;29;20140;-76
2022/11/01 04:12:45;;;;;;;17.77;5.85;;;;;;;11.21;96.41;93088.50;4857456;29;20061;-76
2022/11/01 04:21:11;;;;;;;27.17;11.50;;;;;;;11.20;97.91;93092.22;4856399;29;20044;-76
2022/11/01 04:23:37;;;;;;;14.77;6.72;;;;;;;11.19;98.32;93101.91;4842616;29;20091;-76
2022/11/01 04:26:03;;;;;;;13.95;5.60;;;;;;;11.21;98.36;93104.25;4839868;29;20061;-76
2022/11/01 04:28:28;;;;;;;17.23;6.20;;;;;;;11.20;98.52;93102.69;4838452;29;20125;-76
2022/11/01 04:30:54;;;;;;;13.27;5.45;;;;;;;11.19;98.01;93099.28;4853029;29;20174;-76
2022/11/01 04:33:20;;;;;;;16.73;5.65;;;;;;;11.21;97.22;93099.00;4852895;29;20026;-76
2022/11/01 04:35:46;;;;;;;11.57;4.57;;;;;;;11.26;95.69;93106.84;4840960;29;20075;-76
2022/11/01 04:38:12;;;;;;;11.00;4.50;;;;;;;11.29;95.82;93102.88;4839711;29;20106;-75
2022/11/01 04:40:39;;;;;;;13.43;4.72;;;;;;;11.29;95.80;93102.88;4845876;29;20364;-76
2022/11/01 04:43:04;;;;;;;16.65;5.65;;;;;;;11.30;96.89;93104.44;4856365;29;20510;-76
2022/11/01 04:45:30;;;;;;;18.65;5.63;;;;;;;11.31;96.96;93108.63;4861215;29;20050;-75
2022/11/01 04:48:07;;;;;;;15.23;5.45;;;;;;;11.30;97.35;93105.22;4860109;29;20137;-75
2022/11/01 04:50:34;;;;;;;15.90;5.05;;;;;;;11.30;97.77;93101.81;4859576;29;20045;-76
2022/11/01 04:53:00;;;;;;;12.15;5.00;;;;;;;11.28;97.74;93098.69;4857655;29;20094;-75
2022/11/01 04:55:27;;;;;;;18.55;4.93;;;;;;;11.29;97.85;93101.03;4842885;29;20038;-75
2022/11/01 04:57:53;;;;;;;23.20;4.78;;;;;;;11.28;97.58;93094.25;4842821;29;20061;-76
2022/11/01 05:00:18;;;;;;;12.73;5.13;;;;;;;11.28;97.86;93102.09;4842768;29;20085;-76
2022/11/01 05:02:44;;;;;;;10.68;4.97;;;;;;;11.28;97.91;93099.50;4844902;29;20048;-76
2022/11/01 05:05:10;;;;;;;16.98;5.00;;;;;;;11.28;98.20;93098.69;4856303;29;20049;-76
2022/11/01 05:07:36;;;;;;;18.08;4.82;;;;;;;11.29;97.82;93100.25;4857183;29;20329;-76
2022/11/01 05:10:03;;;;;;;17.02;5.72;;;;;;;11.29;98.36;93100.25;4841475;29;20030;-76
2022/11/01 05:12:28;;;;;;;12.68;4.32;;;;;;;11.29;98.33;93101.03;4845787;29;20045;-76
2022/11/01 05:14:54;;;;;;;11.18;4.55;;;;;;;11.29;98.33;93095.78;4854871;29;20038;-76
2022/11/01 05:17:19;;;;;;;15.63;4.22;;;;;;;11.29;98.85;93106.28;4842583;29;20045;-76
2022/11/01 05:19:45;;;;;;;9.75;3.88;;;;;;;11.29;98.22;93106.28;4841232;29;20116;-76
2022/11/01 05:22:11;;;;;;;11.30;3.95;;;;;;;11.29;97.69;93106.28;4842441;29;20038;-75
2022/11/01 05:24:36;;;;;;;12.07;3.53;;;;;;;11.30;97.39;93105.22;4856948;29;20061;-76
2022/11/01 05:27:02;;;;;;;11.05;3.20;;;;;;;11.30;96.94;93107.06;4860085;29;20112;-76
2022/11/01 05:29:27;;;;;;;10.68;3.33;;;;;;;11.29;95.59;93108.91;4841273;29;20038;-76
2022/11/01 05:31:53;;;;;;;11.98;3.53;;;;;;;11.29;95.25;93106.28;4842666;29;20038;-76
2022/11/01 05:34:19;;;;;;;11.60;3.30;;;;;;;11.30;94.61;93107.84;4854571;29;20044;-76
2022/11/01 05:36:45;;;;;;;11.43;3.47;;;;;;;11.32;94.49;93105.72;4846196;29;20508;-75
2022/11/01 05:39:11;;;;;;;10.75;3.08;;;;;;;11.33;94.00;93096.81;4854984;29;20506;-76
2022/11/01 05:41:37;;;;;;;12.45;3.22;;;;;;;11.35;93.40;93096.53;4843978;29;20037;-76
2022/11/01 05:44:03;;;;;;;13.65;3.45;;;;;;;11.35;93.48;93089.47;4859158;29;20405;-75
2022/11/01 05:46:28;;;;;;;12.13;3.20;;;;;;;11.38;93.43;93094.16;4858813;29;20061;-76
2022/11/01 05:48:54;;;;;;;10.13;3.28;;;;;;;11.38;93.55;93104.63;4859185;29;20045;-76
2022/11/01 05:51:19;;;;;;;9.35;3.30;;;;;;;11.38;93.43;93091.53;4860547;29;20057;-76
2022/11/01 05:53:48;;;;;;;10.23;3.67;;;;;;;11.38;93.77;93088.13;4874493;29;20104;-76
2022/11/01 05:56:13;;;;;;;14.13;4.00;;;;;;;11.39;93.74;93090.47;4856783;29;20044;-75
2022/11/01 05:58:39;;;;;;;8.18;3.33;;;;;;;11.38;93.24;93086.28;4840369;29;20046;-76
2022/11/01 06:01:05;;;;;;;6.60;3.20;;;;;;;11.38;93.35;93096.75;4840275;29;20065;-76
2022/11/01 06:03:31;;;;;;;10.30;3.55;;;;;;;11.39;92.75;93092.28;4840105;29;20457;-76
2022/11/01 06:05:57;;;;;;;10.93;3.72;;;;;;;11.40;92.73;93092.03;4856258;29;20105;-76
2022/11/01 06:08:24;;;;;;;13.25;3.85;;;;;;;11.41;92.44;93098.06;4827681;29;20041;-75
2022/11/01 06:10:49;;;;;;;11.50;3.40;;;;;;;11.40;92.71;93092.03;4841579;29;20042;-76
2022/11/01 06:13:15;;;;;;;10.75;3.17;;;;;;;11.41;92.57;93092.81;4841380;29;20073;-76
2022/11/01 06:15:41;;;;;;;9.00;3.20;;;;;;;11.42;92.24;93089.91;4841493;29;20386;-76
2022/11/01 06:18:07;;;;;;;14.05;3.88;;;;;;;11.43;91.84;93075.75;4846559;29;20105;-76
2022/11/01 06:20:35;;;;;;;11.20;3.28;;;;;;;11.45;91.73;93078.88;4856126;29;20049;-76
2022/11/01 06:23:09;;;;;;;15.73;3.70;;;;;;;11.49;91.66;93089.59;4859684;29;20499;-76
2022/11/01 06:25:36;;;;;;;10.23;3.40;;;;;;;11.50;91.71;93085.13;4859737;29;20043;-76
2022/11/01 06:28:02;;;;;;;11.93;3.72;;;;;;;11.52;91.22;93093.50;4858011;29;20110;-76
2022/11/01 06:30:27;;;;;;;11.75;3.60;;;;;;;11.53;90.95;93092.44;4859135;29;20041;-76
2022/11/01 06:33:02;;;;;;;8.90;3.22;;;;;;;11.54;90.52;93096.63;4858694;29;20106;-76
2022/11/01 06:35:27;;;;;;;14.32;3.45;;;;;;;11.55;90.60;93092.94;4855597;29;20118;-76
2022/11/01 06:37:54;;;;;;;22.77;4.85;;;;;;;11.58;91.58;93097.66;4840614;29;20034;-76
2022/11/01 06:40:20;;;;;;;18.60;4.05;;;;;;;11.59;91.94;93104.44;4842567;29;20626;-76
2022/11/01 06:42:46;;;;;;;15.30;3.67;;;;;;;11.60;91.58;93106.03;4852227;29;20052;-76
2022/11/01 06:45:11;;;;;;;8.32;3.42;;;;;;;11.61;91.56;93118.84;4855868;29;20053;-76
2022/11/01 06:47:37;;;;;;;11.65;3.60;;;;;;;11.63;91.40;93121.97;4852653;29;20049;-76
2022/11/01 06:50:03;;;;;;;10.63;3.40;;;;;;;11.65;91.74;93124.31;4857286;29;20026;-75
2022/11/01 06:52:29;;;;;;;14.55;3.88;;;;;;;11.68;91.78;93131.63;4857189;29;20408;-76
2022/11/01 06:54:54;;;;;;;9.25;3.38;;;;;;;11.70;90.86;93128.75;4854383;29;20048;-75
2022/11/01 06:57:20;;;;;;;8.25;3.53;;;;;;;11.72;91.33;93137.13;4871274;29;20140;-76
2022/11/01 06:59:46;;;;;;;10.60;3.92;;;;;;;11.74;91.22;93143.66;4857176;29;20034;-76
2022/11/01 07:02:11;;;;;;;12.35;4.05;;;;;;;11.77;91.36;93142.31;4855891;29;20145;-75
2022/11/01 07:04:37;;;;;;;8.70;3.55;;;;;;;11.78;90.79;93142.03;4856612;29;20069;-76
2022/11/01 07:07:03;;;;;;;12.20;4.38;;;;;;;11.81;91.61;93145.94;4851775;29;20125;-76
2022/11/01 07:09:29;;;;;;;9.90;3.50;;;;;;;11.82;92.67;93150.91;4857001;29;20469;-75
2022/11/01 07:11:54;;;;;;;12.98;4.15;;;;;;;11.84;92.47;93161.13;4854938;29;20733;-75
2022/11/01 07:14:20;;;;;;;13.18;4.47;;;;;;;11.86;91.15;93154.53;4827806;29;20391;-75
2022/11/01 07:16:46;;;;;;;15.63;4.53;;;;;;;11.89;90.95;93166.38;4847148;29;20483;-75
2022/11/01 07:19:11;;;;;;;8.80;4.10;;;;;;;11.91;91.38;93168.69;4854510;29;20041;-75
2022/11/01 07:21:37;;;;;;;11.20;4.40;;;;;;;11.94;90.79;93173.41;4859917;29;20037;-75
2022/11/01 07:24:03;;;;;;;11.68;4.20;;;;;;;11.96;90.55;93171.28;4851794;29;20129;-77
2022/11/01 07:26:31;;;;;;;9.60;3.80;;;;;;;11.97;91.15;93168.38;4856063;29;20059;-78
2022/11/01 07:28:57;;;;;;;11.10;3.78;;;;;;;12.01;91.60;93173.84;4872906;29;20068;-79
2022/11/01 07:31:24;;;;;;;14.52;4.38;;;;;;;12.05;92.36;93177.50;4856673;29;20120;-81
2022/11/01 07:33:49;;;;;;;10.95;3.78;;;;;;;12.09;92.05;93175.84;4853141;29;20037;-82
2022/11/01 07:36:15;;;;;;;11.70;4.13;;;;;;;12.13;92.85;93169.00;4856742;29;20517;-83
2022/11/01 07:38:41;;;;;;;15.15;4.22;;;;;;;12.17;93.09;93183.13;4861438;29;20473;-78
2022/11/01 07:41:06;;;;;;;12.82;4.25;;;;;;;12.20;93.40;93179.94;4859571;29;20045;-81
2022/11/01 07:43:34;;;;;;;10.48;4.10;;;;;;;12.22;93.32;93177.81;4857294;29;20030;-79
2022/11/01 07:46:02;;;;;;;11.88;3.22;;;;;;;12.27;93.85;93190.91;4855938;29;20063;-80
2022/11/01 07:48:28;;;;;;;10.82;3.42;;;;;;;12.31;93.35;93187.72;4852204;29;20049;-79
2022/11/01 07:50:55;;;;;;;7.53;3.63;;;;;;;12.34;92.91;93192.41;4859454;29;20504;-81
2022/11/01 07:53:21;;;;;;;12.93;4.07;;;;;;;12.34;92.90;93193.22;4854495;29;20034;-79
2022/11/01 07:55:46;;;;;;;12.38;3.75;;;;;;;12.37;93.20;93195.25;4849656;29;20044;-77
2022/11/01 07:58:13;;;;;;;7.57;3.28;;;;;;;12.39;93.36;93195.00;4857431;29;20397;-78
2022/11/01 08:00:39;;;;;;;11.35;3.28;;;;;;;12.42;93.87;93203.06;4843413;29;20505;-79
2022/11/01 08:03:11;;;;;;;14.35;3.63;;;;;;;12.45;94.26;93205.16;4848357;29;20094;-78
2022/11/01 08:05:37;;;;;;;10.18;3.40;;;;;;;12.46;95.59;93204.09;4851422;29;20038;-77
2022/11/01 08:08:04;;;;;;;12.25;4.03;;;;;;;12.49;95.24;93202.75;4852870;29;20033;-78
2022/11/01 08:10:30;;;;;;;8.95;3.60;;;;;;;12.50;95.46;93201.69;4856826;29;20046;-79
2022/11/01 08:13:17;;;;;;;14.70;4.22;;;;;;;12.52;95.00;93207.44;4851492;29;20623;-82
2022/11/01 08:15:43;;;;;;;10.98;3.40;;;;;;;12.55;96.29;93204.25;4848667;29;20048;-80
2022/11/01 08:18:09;;;;;;;10.65;3.45;;;;;;;12.53;95.58;93205.59;4856825;29;20037;-78
2022/11/01 08:20:35;;;;;;;8.32;3.70;;;;;;;12.55;95.63;93201.63;4864859;29;20061;-79
2022/11/01 08:23:00;;;;;;;11.48;3.90;;;;;;;12.56;96.88;93208.44;4862496;29;20046;-79
2022/11/01 08:25:26;;;;;;;9.63;4.30;;;;;;;12.57;97.17;93199.50;4857784;29;20069;-78
2022/11/01 08:27:52;;;;;;;8.77;3.60;;;;;;;12.61;99.24;93204.97;4840092;29;20121;-78
2022/11/01 08:30:18;;;;;;;14.77;4.00;;;;;;;12.60;99.91;93198.94;4855318;29;20029;-78
2022/11/01 08:32:45;;;;;;;11.65;3.53;;;;;;;12.60;100.00;93196.31;4857299;29;20488;-77
2022/11/01 08:35:11;;;;;;;12.57;4.13;;;;;;;12.58;100.00;93208.94;4845943;29;20045;-79
2022/11/01 08:37:46;;;;;;;9.07;3.67;;;;;;;12.60;100.00;93206.81;4859392;29;20037;-78
2022/11/01 08:40:11;;;;;;;10.48;3.90;;;;;;;12.60;100.00;93212.06;4860323;29;20042;-79
2022/11/01 08:42:37;;;;;;;10.82;3.75;;;;;;;12.61;100.00;93218.09;4858546;29;20045;-79
2022/11/01 08:45:03;;;;;;;15.52;3.65;;;;;;;12.62;100.00;93215.19;4859846;29;20050;-79
2022/11/01 08:47:28;;;;;;;9.93;3.65;;;;;;;12.63;100.00;93213.34;4855850;29;20038;-78
2022/11/01 08:49:54;;;;;;;13.40;3.75;;;;;;;12.64;100.00;93214.94;4869672;29;20060;-79
2022/11/01 08:52:19;;;;;;;13.23;3.53;;;;;;;12.65;100.00;93225.16;4853485;29;20045;-78
2022/11/01 08:54:45;;;;;;;14.18;4.10;;;;;;;12.67;100.00;93217.75;4850622;29;20045;-79
2022/11/01 08:57:10;;;;;;;8.95;3.65;;;;;;;12.69;100.00;93214.88;4860683;29;20408;-78
2022/11/01 08:59:36;;;;;;;13.82;4.28;;;;;;;12.70;100.00;93213.81;4842809;29;20034;-79
2022/11/01 09:02:01;;;;;;;7.72;3.85;;;;;;;12.73;100.00;93212.47;4862314;29;20396;-78
2022/11/01 09:04:27;;;;;;;11.70;4.13;;;;;;;12.76;100.00;93211.91;4858728;29;20050;-79
2022/11/01 09:06:53;;;;;;;8.57;3.72;;;;;;;12.79;100.00;93214.75;4854084;29;20128;-79
2022/11/01 09:09:18;;;;;;;7.85;3.63;;;;;;;12.85;100.00;93220.72;4862425;29;20044;-79
2022/11/01 09:11:44;;;;;;;9.10;3.50;;;;;;;12.88;100.00;93228.06;4848641;29;20502;-79
2022/11/01 09:14:09;;;;;;;12.40;3.90;;;;;;;12.90;100.00;93223.28;4847931;29;20030;-78
2022/11/01 09:16:35;;;;;;;8.55;3.40;;;;;;;12.96;100.00;93235.28;4843786;29;20045;-79
2022/11/01 09:19:01;;;;;;;12.63;3.80;;;;;;;12.99;100.00;93237.38;4862635;29;20052;-78
2022/11/01 09:21:29;;;;;;;8.90;3.58;;;;;;;13.03;100.00;93233.09;4846171;29;20131;-78
2022/11/01 09:23:55;;;;;;;9.68;4.20;;;;;;;13.08;100.00;93235.69;4876069;29;20113;-79
2022/11/01 09:26:21;;;;;;;11.80;3.95;;;;;;;13.11;100.00;93244.84;4858418;29;20083;-79
2022/11/01 09:28:46;;;;;;;17.67;8.13;;;;;;;13.10;100.00;93241.44;4853490;29;20057;-79
2022/11/01 09:31:12;;;;;;;144.13;60.55;;;;;;;13.08;100.00;93246.19;4854724;29;20037;-78
2022/11/01 09:33:38;;;;;;;45.17;24.48;;;;;;;13.01;100.00;93248.34;4843795;29;20523;-78
2022/11/01 09:36:04;;;;;;;14.20;4.75;;;;;;;12.98;100.00;93254.19;4851177;29;20071;-79
2022/11/01 09:38:29;;;;;;;22.45;7.70;;;;;;;12.95;100.00;93252.13;4860497;29;20124;-78
2022/11/01 09:41:04;;;;;;;10.65;4.82;;;;;;;12.97;100.00;93255.25;4861495;29;20295;-77
2022/11/01 09:43:33;;;;;;;10.73;4.25;;;;;;;12.95;100.00;93259.22;4876252;29;20033;-78
2022/11/01 09:46:03;;;;;;;9.32;4.07;;;;;;;12.88;100.00;93265.63;4859828;29;20530;-77
2022/11/01 09:48:30;;;;;;;12.95;3.95;;;;;;;12.84;99.65;93269.84;4860323;29;20056;-78
2022/11/01 09:50:58;;;;;;;7.50;4.18;;;;;;;12.77;100.00;93266.00;4862177;29;20053;-79
2022/11/01 09:53:26;;;;;;;13.52;4.13;;;;;;;12.79;100.00;93255.97;4861235;29;20347;-79
2022/11/01 09:56:11;;;;;;;12.57;4.40;;;;;;;12.86;100.00;93265.09;4872171;29;20041;-79
2022/11/01 09:58:46;;;;;;;17.00;4.63;;;;;;;12.93;100.00;93262.16;4851527;29;20037;-79
2022/11/01 10:01:39;;;;;;;12.63;4.25;;;;;;;12.97;99.69;93247.38;4854703;29;20034;-79
2022/11/01 10:04:35;;;;;;;17.75;4.70;;;;;;;12.99;95.61;93258.41;4851518;29;20037;-80
2022/11/01 10:07:15;;;;;;;28.83;10.80;;;;;;;12.96;97.38;93255.53;4853434;29;20042;-79
2022/11/01 10:10:13;;;;;;;19.15;6.63;;;;;;;12.96;99.97;93255.53;4862135;29;20559;-80
2022/11/01 10:13:03;;;;;;;16.60;4.57;;;;;;;12.95;100.00;93265.28;4841295;29;20082;-80
2022/11/01 10:15:56;;;;;;;11.00;5.00;;;;;;;12.88;100.00;93257.72;4857106;29;20045;-79
2022/11/01 10:18:27;;;;;;;13.13;4.95;;;;;;;12.82;96.75;93256.22;4851269;29;20113;-79
2022/11/01 10:20:55;;;;;;;29.60;12.57;;;;;;;12.75;96.73;93255.00;4854647;29;20516;-79
2022/11/01 10:23:36;;;;;;;15.60;5.70;;;;;;;12.69;95.49;93256.88;4858100;29;20065;-79
2022/11/01 10:26:03;;;;;;;60.97;24.52;;;;;;;12.71;94.62;93246.88;4857490;29;20044;-78
2022/11/01 10:28:40;;;;;;;11.68;5.28;;;;;;;12.74;95.16;93243.69;4858828;29;20561;-79
2022/11/01 10:31:15;;;;;;;15.10;4.90;;;;;;;12.80;95.30;93247.84;4859643;29;20110;-79
2022/11/01 10:33:49;;;;;;;17.63;8.95;;;;;;;12.85;95.48;93247.75;4864995;29;20093;-80
2022/11/01 10:36:24;;;;;;;12.32;4.65;;;;;;;12.97;94.18;93241.31;4858262;29;20458;-79
2022/11/01 10:38:59;;;;;;;14.43;5.43;;;;;;;12.95;95.95;93244.25;4857373;29;20041;-80
2022/11/01 10:41:28;;;;;;;14.32;4.50;;;;;;;12.99;94.99;93245.25;4857766;29;20044;-79
2022/11/01 10:43:59;;;;;;;10.18;4.53;;;;;;;13.18;94.31;93239.22;4860337;29;20074;-80
2022/11/01 10:46:33;;;;;;;13.55;4.90;;;;;;;13.31;94.51;93241.97;4849123;29;20058;-79
2022/11/01 10:49:04;;;;;;;13.65;4.50;;;;;;;13.20;98.84;93239.72;4850877;29;20092;-79
2022/11/01 10:51:33;;;;;;;195.98;61.40;;;;;;;13.21;94.24;93247.31;4858046;29;20414;-81
2022/11/01 10:54:03;;;;;;;115.90;39.53;;;;;;;13.04;97.20;93247.03;4861151;29;20022;-84
2022/11/01 10:56:43;;;;;;;15.13;6.70;;;;;;;12.93;93.18;93246.38;4860007;29;20182;-81
2022/11/01 10:59:37;;;;;;;153.77;56.92;;;;;;;12.85;93.75;93247.00;4852816;29;20026;-80
2022/11/01 11:02:21;;;;;;;26.55;9.30;;;;;;;13.08;93.11;93255.91;4847653;29;20554;-80
2022/11/01 11:04:48;;;;;;;65.65;32.60;;;;;;;13.01;94.35;93248.34;4856318;29;20072;-80
2022/11/01 11:07:16;;;;;;;34.13;16.77;;;;;;;12.89;94.05;93240.13;4847908;29;20037;-80
2022/11/01 11:09:42;;;;;;;28.52;12.68;;;;;;;12.84;96.17;93245.44;4846739;29;20523;-79
2022/11/01 11:12:19;;;;;;;16.42;4.78;;;;;;;12.77;94.68;93247.63;4858153;29;20448;-78
2022/11/01 11:15:10;;;;;;;15.13;5.13;;;;;;;12.67;93.69;93248.50;4848967;29;20037;-81
2022/11/01 11:17:42;;;;;;;11.30;5.30;;;;;;;12.63;93.88;93248.28;4851458;29;20034;-80
2022/11/01 11:20:13;;;;;;;12.30;6.03;;;;;;;12.59;93.18;93249.91;4855397;29;20037;-81
2022/11/01 11:22:41;;;;;;;161.05;58.05;;;;;;;12.60;94.95;93243.59;4854164;29;20558;-81
2022/11/01 11:25:15;;;;;;;15.25;5.70;;;;;;;12.63;95.69;93244.88;4849985;29;20029;-79
2022/11/01 11:27:46;;;;;;;11.38;5.35;;;;;;;12.56;95.83;93245.19;4852793;29;20164;-81
2022/11/01 11:30:24;;;;;;;27.80;12.50;;;;;;;12.49;97.48;93237.66;4853837;29;20488;-80
2022/11/01 11:32:50;;;;;;;14.05;5.30;;;;;;;12.49;100.00;93236.88;4849219;29;20666;-80
2022/11/01 11:35:18;;;;;;;12.65;4.68;;;;;;;12.45;100.00;93235.88;4859217;29;20040;-82
2022/11/01 11:38:02;;;;;;;14.25;6.20;;;;;;;12.38;100.00;93236.19;4853768;29;20030;-81
2022/11/01 11:40:40;;;;;;;18.23;5.65;;;;;;;12.34;100.00;93232.59;4858530;29;20182;-81
2022/11/01 11:43:17;;;;;;;16.45;6.65;;;;;;;12.24;100.00;93230.06;4856695;29;20385;-81